createdAt,value
2018-02-20T00:00:26.783Z,953.74
2018-02-20T00:01:26.795Z,953.74
2018-02-20T00:02:26.810Z,953.73
2018-02-20T00:03:26.870Z,953.72
2018-02-20T00:04:26.829Z,953.68
2018-02-20T00:05:26.842Z,953.69
2018-02-20T00:06:26.856Z,953.72
2018-02-20T00:07:26.867Z,953.69
2018-02-20T00:08:26.880Z,953.69
2018-02-20T00:09:26.891Z,953.73
2018-02-20T00:10:26.903Z,953.68
2018-02-20T00:11:26.916Z,953.64
2018-02-20T00:12:26.926Z,953.65
2018-02-20T00:13:26.940Z,953.66
2018-02-20T00:14:26.951Z,953.64
2018-02-20T00:15:26.962Z,953.63
2018-02-20T00:16:26.975Z,953.62
2018-02-20T00:17:26.991Z,953.61
2018-02-20T00:18:27.050Z,953.61
2018-02-20T00:19:27.009Z,953.62
2018-02-20T00:20:27.104Z,953.59
2018-02-20T00:21:27.041Z,953.57
2018-02-20T00:22:27.045Z,953.58
2018-02-20T00:23:27.109Z,953.55
2018-02-20T00:24:27.069Z,953.53
2018-02-20T00:25:27.081Z,953.52
2018-02-20T00:26:27.093Z,953.51
2018-02-20T00:27:27.106Z,953.52
2018-02-20T00:28:27.117Z,953.54
2018-02-20T00:29:27.129Z,953.51
2018-02-20T00:30:27.141Z,953.52
2018-02-20T00:31:27.153Z,953.46
2018-02-20T00:32:27.164Z,953.46
2018-02-20T00:33:27.226Z,953.45
2018-02-20T00:34:27.189Z,953.44
2018-02-20T00:35:27.200Z,953.42
2018-02-20T00:36:27.212Z,953.38
2018-02-20T00:37:27.223Z,953.41
2018-02-20T00:38:27.240Z,953.4
2018-02-20T00:39:27.248Z,953.38
2018-02-20T00:40:27.259Z,953.4
2018-02-20T00:41:27.271Z,953.37
2018-02-20T00:42:27.284Z,953.37
2018-02-20T00:43:27.296Z,953.36
2018-02-20T00:44:27.309Z,953.37
2018-02-20T00:45:27.319Z,953.37
2018-02-20T00:46:27.332Z,953.37
2018-02-20T00:47:27.343Z,953.37
2018-02-20T00:48:27.404Z,953.31
2018-02-20T00:49:27.390Z,953.3
2018-02-20T00:50:27.379Z,953.31
2018-02-20T00:51:27.393Z,953.31
2018-02-20T00:52:27.402Z,953.33
2018-02-20T00:53:27.414Z,953.33
2018-02-20T00:54:27.427Z,953.33
2018-02-20T00:55:27.437Z,953.29
2018-02-20T00:56:27.455Z,953.33
2018-02-20T00:57:27.460Z,953.27
2018-02-20T00:58:27.472Z,953.32
2018-02-20T00:59:27.485Z,953.35
2018-02-20T01:00:27.496Z,953.34
2018-02-20T01:01:27.509Z,953.34
2018-02-20T01:02:27.520Z,953.3
2018-02-20T01:03:27.583Z,953.33
2018-02-20T01:04:27.545Z,953.36
2018-02-20T01:05:27.558Z,953.36
2018-02-20T01:06:27.568Z,953.34
2018-02-20T01:07:27.581Z,953.34
2018-02-20T01:08:27.594Z,953.32
2018-02-20T01:09:27.608Z,953.32
2018-02-20T01:10:27.616Z,953.3
2018-02-20T01:11:27.628Z,953.27
2018-02-20T01:12:27.638Z,953.26
2018-02-20T01:13:27.653Z,953.26
2018-02-20T01:14:27.663Z,953.22
2018-02-20T01:15:27.675Z,953.23
2018-02-20T01:16:27.686Z,953.25
2018-02-20T01:17:27.700Z,953.26
2018-02-20T01:18:27.760Z,953.27
2018-02-20T01:19:27.723Z,953.26
2018-02-20T01:20:27.735Z,953.26
2018-02-20T01:21:27.747Z,953.28
2018-02-20T01:22:27.758Z,953.21
2018-02-20T01:23:27.768Z,953.25
2018-02-20T01:24:27.782Z,953.22
2018-02-20T01:25:27.793Z,953.23
2018-02-20T01:26:27.804Z,953.21
2018-02-20T01:27:27.817Z,953.24
2018-02-20T01:28:27.829Z,953.27
2018-02-20T01:29:27.840Z,953.25
2018-02-20T01:30:27.852Z,953.25
2018-02-20T01:31:27.868Z,953.28
2018-02-20T01:32:27.876Z,953.23
2018-02-20T01:33:27.938Z,953.23
2018-02-20T01:34:27.900Z,953.22
2018-02-20T01:35:27.913Z,953.16
2018-02-20T01:36:27.923Z,953.22
2018-02-20T01:37:27.935Z,953.17
2018-02-20T01:38:27.946Z,953.16
2018-02-20T01:39:27.958Z,953.16
2018-02-20T01:40:27.971Z,953.17
2018-02-20T01:41:27.981Z,953.17
2018-02-20T01:42:27.995Z,953.2
2018-02-20T01:43:28.006Z,953.21
2018-02-20T01:44:28.018Z,953.2
2018-02-20T01:45:28.030Z,953.16
2018-02-20T01:46:28.043Z,953.21
2018-02-20T01:47:28.054Z,953.24
2018-02-20T01:48:28.119Z,953.22
2018-02-20T01:49:28.078Z,953.25
2018-02-20T01:50:28.090Z,953.23
2018-02-20T01:51:28.102Z,953.22
2018-02-20T01:52:28.114Z,953.24
2018-02-20T01:53:28.140Z,953.22
2018-02-20T01:54:28.136Z,953.2
2018-02-20T01:55:28.148Z,953.21
2018-02-20T01:56:28.161Z,953.25
2018-02-20T01:57:28.171Z,953.2
2018-02-20T01:58:28.183Z,953.14
2018-02-20T01:59:28.196Z,953.17
2018-02-20T02:00:28.209Z,953.15
2018-02-20T02:01:28.219Z,953.15
2018-02-20T02:02:28.229Z,953.18
2018-02-20T02:03:28.247Z,953.15
2018-02-20T02:04:28.405Z,953.11
2018-02-20T02:05:28.266Z,953.13
2018-02-20T02:06:28.278Z,953.14
2018-02-20T02:07:28.290Z,953.18
2018-02-20T02:08:28.301Z,953.13
2018-02-20T02:09:28.312Z,953.19
2018-02-20T02:10:28.324Z,953.14
2018-02-20T02:11:28.337Z,953.18
2018-02-20T02:12:28.348Z,953.12
2018-02-20T02:13:28.361Z,953.14
2018-02-20T02:14:28.372Z,953.09
2018-02-20T02:15:28.390Z,953.09
2018-02-20T02:16:28.395Z,953.15
2018-02-20T02:17:28.407Z,953.12
2018-02-20T02:18:28.419Z,953.11
2018-02-20T02:19:28.479Z,953.11
2018-02-20T02:20:28.446Z,953.09
2018-02-20T02:21:28.454Z,953.12
2018-02-20T02:22:28.466Z,953.14
2018-02-20T02:23:28.481Z,953.09
2018-02-20T02:24:28.490Z,953.09
2018-02-20T02:25:28.504Z,953.1
2018-02-20T02:26:28.513Z,953.09
2018-02-20T02:27:28.525Z,953.09
2018-02-20T02:28:28.537Z,953.08
2018-02-20T02:29:28.549Z,953.08
2018-02-20T02:30:28.560Z,953.07
2018-02-20T02:31:28.572Z,953.02
2018-02-20T02:32:28.586Z,953.08
2018-02-20T02:33:28.596Z,953.07
2018-02-20T02:34:28.659Z,953.08
2018-02-20T02:35:28.620Z,953.05
2018-02-20T02:36:28.633Z,953.05
2018-02-20T02:37:28.644Z,953.02
2018-02-20T02:38:28.659Z,953.03
2018-02-20T02:39:28.670Z,953.01
2018-02-20T02:40:28.680Z,953.01
2018-02-20T02:41:28.691Z,953.01
2018-02-20T02:42:28.702Z,953.03
2018-02-20T02:43:28.716Z,953.02
2018-02-20T02:44:28.727Z,953
2018-02-20T02:45:28.738Z,952.98
2018-02-20T02:46:28.752Z,952.99
2018-02-20T02:47:28.763Z,952.97
2018-02-20T02:48:28.774Z,952.95
2018-02-20T02:49:28.835Z,953
2018-02-20T02:50:28.797Z,952.98
2018-02-20T02:51:28.810Z,952.93
2018-02-20T02:52:28.821Z,952.99
2018-02-20T02:53:28.834Z,952.98
2018-02-20T02:54:28.853Z,953.02
2018-02-20T02:55:28.857Z,952.99
2018-02-20T02:56:28.869Z,952.99
2018-02-20T02:57:28.895Z,953.03
2018-02-20T02:58:28.894Z,952.98
2018-02-20T02:59:28.906Z,952.99
2018-02-20T03:00:28.917Z,953
2018-02-20T03:01:28.929Z,952.97
2018-02-20T03:02:28.943Z,952.95
2018-02-20T03:03:28.955Z,952.95
2018-02-20T03:04:29.016Z,952.95
2018-02-20T03:05:28.978Z,952.92
2018-02-20T03:06:28.991Z,952.89
2018-02-20T03:07:29.001Z,952.9
2018-02-20T03:08:29.013Z,952.91
2018-02-20T03:09:29.024Z,952.89
2018-02-20T03:10:29.037Z,952.91
2018-02-20T03:11:29.048Z,952.95
2018-02-20T03:12:29.060Z,952.98
2018-02-20T03:13:29.072Z,952.93
2018-02-20T03:14:29.088Z,952.97
2018-02-20T03:15:29.096Z,952.97
2018-02-20T03:16:29.111Z,952.97
2018-02-20T03:17:29.125Z,953
2018-02-20T03:18:29.132Z,952.96
2018-02-20T03:19:29.143Z,952.96
2018-02-20T03:20:29.205Z,952.92
2018-02-20T03:21:29.168Z,952.97
2018-02-20T03:22:29.185Z,952.93
2018-02-20T03:23:29.192Z,952.89
2018-02-20T03:24:29.204Z,952.9
2018-02-20T03:25:29.215Z,952.92
2018-02-20T03:26:29.227Z,952.93
2018-02-20T03:27:29.240Z,952.94
2018-02-20T03:28:29.250Z,952.96
2018-02-20T03:29:29.262Z,952.95
2018-02-20T03:30:29.275Z,952.98
2018-02-20T03:31:29.287Z,952.99
2018-02-20T03:32:29.298Z,953.04
2018-02-20T03:33:29.310Z,952.96
2018-02-20T03:34:29.323Z,952.96
2018-02-20T03:35:29.335Z,953.01
2018-02-20T03:36:29.396Z,953
2018-02-20T03:37:29.357Z,952.97
2018-02-20T03:38:29.370Z,952.91
2018-02-20T03:39:29.382Z,953
2018-02-20T03:40:29.394Z,952.96
2018-02-20T03:41:29.408Z,952.96
2018-02-20T03:42:29.418Z,952.99
2018-02-20T03:43:29.428Z,952.97
2018-02-20T03:44:29.444Z,952.95
2018-02-20T03:45:29.453Z,952.97
2018-02-20T03:46:29.463Z,952.94
2018-02-20T03:47:29.475Z,952.98
2018-02-20T03:48:29.488Z,952.93
2018-02-20T03:49:29.501Z,952.95
2018-02-20T03:50:29.512Z,952.99
2018-02-20T03:51:29.574Z,952.93
2018-02-20T03:52:29.536Z,952.99
2018-02-20T03:53:29.547Z,952.98
2018-02-20T03:54:29.578Z,952.98
2018-02-20T03:55:29.571Z,953
2018-02-20T03:56:29.584Z,952.94
2018-02-20T03:57:29.595Z,952.94
2018-02-20T03:58:29.607Z,953
2018-02-20T03:59:29.618Z,952.95
2018-02-20T04:00:29.630Z,952.93
2018-02-20T04:01:29.644Z,952.92
2018-02-20T04:02:29.654Z,952.93
2018-02-20T04:03:29.666Z,952.94
2018-02-20T04:04:29.678Z,952.93
2018-02-20T04:05:29.694Z,952.95
2018-02-20T04:06:29.751Z,952.91
2018-02-20T04:07:29.713Z,952.86
2018-02-20T04:08:29.729Z,952.91
2018-02-20T04:09:29.737Z,952.91
2018-02-20T04:10:29.753Z,952.84
2018-02-20T04:11:29.761Z,952.91
2018-02-20T04:12:29.772Z,952.91
2018-02-20T04:13:29.785Z,952.86
2018-02-20T04:14:29.801Z,952.85
2018-02-20T04:15:29.808Z,952.89
2018-02-20T04:16:29.870Z,952.87
2018-02-20T04:17:29.830Z,952.89
2018-02-20T04:18:29.843Z,952.87
2018-02-20T04:19:29.858Z,952.86
2018-02-20T04:20:29.869Z,952.9
2018-02-20T04:21:29.878Z,952.9
2018-02-20T04:22:29.890Z,952.89
2018-02-20T04:23:29.921Z,952.88
2018-02-20T04:24:29.915Z,952.88
2018-02-20T04:25:29.928Z,952.84
2018-02-20T04:26:29.939Z,952.87
2018-02-20T04:27:29.949Z,952.87
2018-02-20T04:28:29.963Z,952.88
2018-02-20T04:29:29.973Z,952.92
2018-02-20T04:30:29.986Z,952.89
2018-02-20T04:31:30.048Z,952.9
2018-02-20T04:32:30.009Z,952.89
2018-02-20T04:33:30.021Z,952.89
2018-02-20T04:34:30.033Z,952.91
2018-02-20T04:35:30.046Z,952.91
2018-02-20T04:36:30.057Z,952.9
2018-02-20T04:37:30.069Z,952.9
2018-02-20T04:38:30.080Z,952.93
2018-02-20T04:39:30.091Z,952.9
2018-02-20T04:40:30.102Z,952.88
2018-02-20T04:41:30.117Z,952.89
2018-02-20T04:42:30.126Z,952.9
2018-02-20T04:43:30.137Z,952.93
2018-02-20T04:44:30.151Z,952.96
2018-02-20T04:45:30.163Z,952.97
2018-02-20T04:46:30.223Z,952.95
2018-02-20T04:47:30.185Z,952.93
2018-02-20T04:48:30.196Z,952.97
2018-02-20T04:49:30.208Z,952.94
2018-02-20T04:50:30.220Z,952.93
2018-02-20T04:51:30.233Z,952.97
2018-02-20T04:52:30.243Z,952.94
2018-02-20T04:53:30.255Z,952.92
2018-02-20T04:54:30.269Z,952.94
2018-02-20T04:55:30.283Z,952.95
2018-02-20T04:56:30.291Z,952.93
2018-02-20T04:57:30.304Z,952.93
2018-02-20T04:58:30.339Z,952.93
2018-02-20T04:59:30.327Z,952.92
2018-02-20T05:00:30.338Z,952.92
2018-02-20T05:01:30.401Z,952.91
2018-02-20T05:02:30.362Z,952.91
2018-02-20T05:03:30.374Z,952.94
2018-02-20T05:04:30.385Z,952.91
2018-02-20T05:05:30.397Z,952.97
2018-02-20T05:06:30.459Z,952.92
2018-02-20T05:07:30.419Z,952.92
2018-02-20T05:08:30.432Z,952.89
2018-02-20T05:09:30.443Z,952.9
2018-02-20T05:10:30.458Z,952.91
2018-02-20T05:11:30.468Z,952.91
2018-02-20T05:12:30.480Z,952.9
2018-02-20T05:13:30.492Z,952.9
2018-02-20T05:14:30.503Z,952.93
2018-02-20T05:15:30.515Z,952.93
2018-02-20T05:16:30.581Z,952.91
2018-02-20T05:17:30.538Z,952.92
2018-02-20T05:18:30.549Z,952.94
2018-02-20T05:19:30.562Z,952.95
2018-02-20T05:20:30.576Z,952.91
2018-02-20T05:21:30.586Z,952.91
2018-02-20T05:22:30.596Z,952.92
2018-02-20T05:23:30.610Z,952.91
2018-02-20T05:24:30.621Z,952.89
2018-02-20T05:25:30.633Z,952.87
2018-02-20T05:26:30.645Z,952.9
2018-02-20T05:27:30.666Z,952.88
2018-02-20T05:28:30.670Z,952.91
2018-02-20T05:29:30.681Z,952.88
2018-02-20T05:30:30.693Z,952.88
2018-02-20T05:31:30.755Z,952.9
2018-02-20T05:32:30.720Z,952.9
2018-02-20T05:33:30.730Z,952.9
2018-02-20T05:34:30.740Z,952.85
2018-02-20T05:35:30.752Z,952.88
2018-02-20T05:36:30.814Z,952.87
2018-02-20T05:37:30.776Z,952.93
2018-02-20T05:38:30.788Z,952.85
2018-02-20T05:39:30.800Z,952.94
2018-02-20T05:40:30.812Z,952.93
2018-02-20T05:41:30.822Z,952.93
2018-02-20T05:42:30.834Z,952.96
2018-02-20T05:43:30.848Z,952.94
2018-02-20T05:44:30.862Z,952.93
2018-02-20T05:45:30.869Z,952.92
2018-02-20T05:46:30.881Z,952.92
2018-02-20T05:47:30.894Z,952.95
2018-02-20T05:48:30.907Z,952.92
2018-02-20T05:49:30.917Z,952.92
2018-02-20T05:50:30.932Z,952.92
2018-02-20T05:51:31.043Z,952.99
2018-02-20T05:52:30.953Z,952.96
2018-02-20T05:53:30.965Z,952.99
2018-02-20T05:54:30.976Z,952.97
2018-02-20T05:55:30.988Z,953
2018-02-20T05:56:31.051Z,953.03
2018-02-20T05:57:31.012Z,953.04
2018-02-20T05:58:31.027Z,953.03
2018-02-20T05:59:31.035Z,953.02
2018-02-20T06:00:31.048Z,953.04
2018-02-20T06:01:31.059Z,953.02
2018-02-20T06:02:31.080Z,953.04
2018-02-20T06:03:31.082Z,953.06
2018-02-20T06:04:31.095Z,953.05
2018-02-20T06:05:31.106Z,953.04
2018-02-20T06:06:31.117Z,953.06
2018-02-20T06:07:31.130Z,953.04
2018-02-20T06:08:31.140Z,953.07
2018-02-20T06:09:31.207Z,953.04
2018-02-20T06:10:31.164Z,953.08
2018-02-20T06:11:31.177Z,953.08
2018-02-20T06:12:31.188Z,953.06
2018-02-20T06:13:31.199Z,953.06
2018-02-20T06:14:31.211Z,953.09
2018-02-20T06:15:31.223Z,953.08
2018-02-20T06:16:31.237Z,953.11
2018-02-20T06:17:31.246Z,953.15
2018-02-20T06:18:31.258Z,953.12
2018-02-20T06:19:31.271Z,953.1
2018-02-20T06:20:31.282Z,953.12
2018-02-20T06:21:31.297Z,953.13
2018-02-20T06:22:31.306Z,953.12
2018-02-20T06:23:31.317Z,953.08
2018-02-20T06:24:31.382Z,953.12
2018-02-20T06:25:31.346Z,953.08
2018-02-20T06:26:31.354Z,953.1
2018-02-20T06:27:31.365Z,953.13
2018-02-20T06:28:31.375Z,953.08
2018-02-20T06:29:31.388Z,953.12
2018-02-20T06:30:31.401Z,953.13
2018-02-20T06:31:31.413Z,953.08
2018-02-20T06:32:31.424Z,953.12
2018-02-20T06:33:31.437Z,953.18
2018-02-20T06:34:31.499Z,953.17
2018-02-20T06:35:31.460Z,953.16
2018-02-20T06:36:31.472Z,953.14
2018-02-20T06:37:31.486Z,953.15
2018-02-20T06:38:31.495Z,953.18
2018-02-20T06:39:31.508Z,953.13
2018-02-20T06:40:31.521Z,953.11
2018-02-20T06:41:31.530Z,953.11
2018-02-20T06:42:31.543Z,953.17
2018-02-20T06:43:31.555Z,953.14
2018-02-20T06:44:31.665Z,953.1
2018-02-20T06:45:31.578Z,953.13
2018-02-20T06:46:31.590Z,953.14
2018-02-20T06:47:31.601Z,953.1
2018-02-20T06:48:31.613Z,953.13
2018-02-20T06:49:31.675Z,953.14
2018-02-20T06:50:31.636Z,953.11
2018-02-20T06:51:31.648Z,953.1
2018-02-20T06:52:31.662Z,953.15
2018-02-20T06:53:31.671Z,953.16
2018-02-20T06:54:31.684Z,953.18
2018-02-20T06:55:31.695Z,953.17
2018-02-20T06:56:31.715Z,953.13
2018-02-20T06:57:31.719Z,953.17
2018-02-20T06:58:31.731Z,953.15
2018-02-20T06:59:31.764Z,953.16
2018-02-20T07:00:31.755Z,953.17
2018-02-20T07:01:31.767Z,953.17
2018-02-20T07:02:31.779Z,953.15
2018-02-20T07:03:31.790Z,953.18
2018-02-20T07:04:31.804Z,953.14
2018-02-20T07:05:31.864Z,953.21
2018-02-20T07:06:31.831Z,953.2
2018-02-20T07:07:31.839Z,953.19
2018-02-20T07:08:31.850Z,953.2
2018-02-20T07:09:31.863Z,953.19
2018-02-20T07:10:31.974Z,953.19
2018-02-20T07:11:31.889Z,953.18
2018-02-20T07:12:31.897Z,953.22
2018-02-20T07:13:31.914Z,953.19
2018-02-20T07:14:31.922Z,953.21
2018-02-20T07:15:31.938Z,953.23
2018-02-20T07:16:31.947Z,953.2
2018-02-20T07:17:32.008Z,953.19
2018-02-20T07:18:31.971Z,953.2
2018-02-20T07:19:31.984Z,953.19
2018-02-20T07:20:32.050Z,953.19
2018-02-20T07:21:32.009Z,953.21
2018-02-20T07:22:32.022Z,953.18
2018-02-20T07:23:32.034Z,953.16
2018-02-20T07:24:32.049Z,953.14
2018-02-20T07:25:32.058Z,953.13
2018-02-20T07:26:32.069Z,953.14
2018-02-20T07:27:32.184Z,953.13
2018-02-20T07:28:32.095Z,953.11
2018-02-20T07:29:32.106Z,953.11
2018-02-20T07:30:32.118Z,953.12
2018-02-20T07:31:32.140Z,953.12
2018-02-20T07:32:32.144Z,953.11
2018-02-20T07:33:32.155Z,953.13
2018-02-20T07:34:32.169Z,953.13
2018-02-20T07:35:32.249Z,953.11
2018-02-20T07:36:32.194Z,953.11
2018-02-20T07:37:32.200Z,953.13
2018-02-20T07:38:32.214Z,953.17
2018-02-20T07:39:32.228Z,953.11
2018-02-20T07:40:32.244Z,953.12
2018-02-20T07:41:32.249Z,953.13
2018-02-20T07:42:32.262Z,953.11
2018-02-20T07:43:32.274Z,953.1
2018-02-20T07:44:32.286Z,953.12
2018-02-20T07:45:32.297Z,953.13
2018-02-20T07:46:32.311Z,953.12
2018-02-20T07:47:32.323Z,953.18
2018-02-20T07:48:32.333Z,953.13
2018-02-20T07:49:32.346Z,953.18
2018-02-20T07:50:32.358Z,953.16
2018-02-20T07:51:32.421Z,953.18
2018-02-20T07:52:32.382Z,953.18
2018-02-20T07:53:32.398Z,953.15
2018-02-20T07:54:32.405Z,953.14
2018-02-20T07:55:32.418Z,953.19
2018-02-20T07:56:32.450Z,953.14
2018-02-20T07:57:32.441Z,953.16
2018-02-20T07:58:32.456Z,953.15
2018-02-20T07:59:32.467Z,953.17
2018-02-20T08:00:32.480Z,953.15
2018-02-20T08:01:32.493Z,953.18
2018-02-20T08:02:32.503Z,953.13
2018-02-20T08:03:32.517Z,953.11
2018-02-20T08:04:32.528Z,953.14
2018-02-20T08:05:32.575Z,953.14
2018-02-20T08:06:32.605Z,953.2
2018-02-20T08:07:32.570Z,953.2
2018-02-20T08:08:32.579Z,953.16
2018-02-20T08:09:32.592Z,953.14
2018-02-20T08:10:32.601Z,953.13
2018-02-20T08:11:32.615Z,953.19
2018-02-20T08:12:32.628Z,953.17
2018-02-20T08:13:32.640Z,953.14
2018-02-20T08:14:32.652Z,953.12
2018-02-20T08:15:32.664Z,953.19
2018-02-20T08:16:32.677Z,953.17
2018-02-20T08:17:32.692Z,953.15
2018-02-20T08:18:32.702Z,953.19
2018-02-20T08:19:32.714Z,953.18
2018-02-20T08:20:32.727Z,953.2
2018-02-20T08:21:32.738Z,953.18
2018-02-20T08:22:32.801Z,953.21
2018-02-20T08:23:32.764Z,953.19
2018-02-20T08:24:32.778Z,953.17
2018-02-20T08:25:32.790Z,953.19
2018-02-20T08:26:32.801Z,953.18
2018-02-20T08:27:32.813Z,953.18
2018-02-20T08:28:32.825Z,953.17
2018-02-20T08:29:32.839Z,953.18
2018-02-20T08:30:32.850Z,953.17
2018-02-20T08:31:32.864Z,953.25
2018-02-20T08:32:32.875Z,953.23
2018-02-20T08:33:32.888Z,953.24
2018-02-20T08:34:32.902Z,953.25
2018-02-20T08:35:32.914Z,953.26
2018-02-20T08:36:32.932Z,953.26
2018-02-20T08:37:32.990Z,953.26
2018-02-20T08:38:32.955Z,953.3
2018-02-20T08:39:32.964Z,953.23
2018-02-20T08:40:32.978Z,953.28
2018-02-20T08:41:32.989Z,953.25
2018-02-20T08:42:33.021Z,953.28
2018-02-20T08:43:33.017Z,953.24
2018-02-20T08:44:33.028Z,953.26
2018-02-20T08:45:33.043Z,953.27
2018-02-20T08:46:33.068Z,953.28
2018-02-20T08:47:33.070Z,953.25
2018-02-20T08:48:33.080Z,953.29
2018-02-20T08:49:33.094Z,953.25
2018-02-20T08:50:33.106Z,953.29
2018-02-20T08:51:33.120Z,953.27
2018-02-20T08:52:33.182Z,953.3
2018-02-20T08:53:33.148Z,953.34
2018-02-20T08:54:33.200Z,953.31
2018-02-20T08:55:33.171Z,953.35
2018-02-20T08:56:33.184Z,953.35
2018-02-20T08:57:33.197Z,953.38
2018-02-20T08:58:33.210Z,953.34
2018-02-20T08:59:33.225Z,953.37
2018-02-20T09:00:33.238Z,953.35
2018-02-20T09:01:33.249Z,953.36
2018-02-20T09:02:33.264Z,953.34
2018-02-20T09:03:33.279Z,953.34
2018-02-20T09:04:33.291Z,953.35
2018-02-20T09:05:33.302Z,953.37
2018-02-20T09:06:33.317Z,953.35
2018-02-20T09:07:33.380Z,953.33
2018-02-20T09:08:33.344Z,953.34
2018-02-20T09:09:33.356Z,953.32
2018-02-20T09:10:33.370Z,953.31
2018-02-20T09:11:33.383Z,953.32
2018-02-20T09:12:33.394Z,953.33
2018-02-20T09:13:33.409Z,953.3
2018-02-20T09:14:33.423Z,953.28
2018-02-20T09:15:33.437Z,953.33
2018-02-20T09:16:33.449Z,953.3
2018-02-20T09:17:33.462Z,953.28
2018-02-20T09:18:33.475Z,953.31
2018-02-20T09:19:33.489Z,953.33
2018-02-20T09:20:33.500Z,953.28
2018-02-20T09:21:33.515Z,953.32
2018-02-20T09:22:33.531Z,953.3
2018-02-20T09:23:33.591Z,953.32
2018-02-20T09:24:33.553Z,953.32
2018-02-20T09:25:33.567Z,953.35
2018-02-20T09:26:33.580Z,953.34
2018-02-20T09:27:33.594Z,953.34
2018-02-20T09:28:33.608Z,953.33
2018-02-20T09:29:33.621Z,953.29
2018-02-20T09:30:33.635Z,953.3
2018-02-20T09:31:33.648Z,953.29
2018-02-20T09:32:33.660Z,953.31
2018-02-20T09:33:33.723Z,953.32
2018-02-20T09:34:33.687Z,953.32
2018-02-20T09:35:33.700Z,953.35
2018-02-20T09:36:33.713Z,953.37
2018-02-20T09:37:33.726Z,953.36
2018-02-20T09:38:33.790Z,953.38
2018-02-20T09:39:33.753Z,953.39
2018-02-20T09:40:33.768Z,953.38
2018-02-20T09:41:33.781Z,953.39
2018-02-20T09:42:33.794Z,953.36
2018-02-20T09:43:33.833Z,953.4
2018-02-20T09:44:33.822Z,953.37
2018-02-20T09:45:33.835Z,953.38
2018-02-20T09:46:33.847Z,953.39
2018-02-20T09:47:33.861Z,953.37
2018-02-20T09:48:33.875Z,953.41
2018-02-20T09:49:33.888Z,953.44
2018-02-20T09:50:33.902Z,953.41
2018-02-20T09:51:33.915Z,953.42
2018-02-20T09:52:33.927Z,953.43
2018-02-20T09:53:33.994Z,953.41
2018-02-20T09:54:33.954Z,953.42
2018-02-20T09:55:33.969Z,953.41
2018-02-20T09:56:33.980Z,953.41
2018-02-20T09:57:34.029Z,953.43
2018-02-20T09:58:34.010Z,953.42
2018-02-20T09:59:34.023Z,953.44
2018-02-20T10:00:34.034Z,953.43
2018-02-20T10:01:34.048Z,953.42
2018-02-20T10:02:34.062Z,953.38
2018-02-20T10:03:34.076Z,953.4
2018-02-20T10:04:34.088Z,953.38
2018-02-20T10:05:34.105Z,953.39
2018-02-20T10:06:34.116Z,953.41
2018-02-20T10:07:34.129Z,953.4
2018-02-20T10:08:34.193Z,953.37
2018-02-20T10:09:34.156Z,953.42
2018-02-20T10:10:34.169Z,953.41
2018-02-20T10:11:34.183Z,953.42
2018-02-20T10:12:34.196Z,953.4
2018-02-20T10:13:34.260Z,953.39
2018-02-20T10:14:34.224Z,953.4
2018-02-20T10:15:34.237Z,953.41
2018-02-20T10:16:34.251Z,953.37
2018-02-20T10:17:34.264Z,953.39
2018-02-20T10:18:34.327Z,953.42
2018-02-20T10:19:34.291Z,953.41
2018-02-20T10:20:34.306Z,953.41
2018-02-20T10:21:34.319Z,953.43
2018-02-20T10:22:34.332Z,953.41
2018-02-20T10:23:34.346Z,953.4
2018-02-20T10:24:34.358Z,953.45
2018-02-20T10:25:34.372Z,953.43
2018-02-20T10:26:34.386Z,953.44
2018-02-20T10:27:34.399Z,953.41
2018-02-20T10:28:34.413Z,953.44
2018-02-20T10:29:34.427Z,953.43
2018-02-20T10:30:34.440Z,953.41
2018-02-20T10:31:34.459Z,953.43
2018-02-20T10:32:34.467Z,953.41
2018-02-20T10:33:34.529Z,953.4
2018-02-20T10:34:34.493Z,953.39
2018-02-20T10:35:34.507Z,953.39
2018-02-20T10:36:34.545Z,953.4
2018-02-20T10:37:34.532Z,953.41
2018-02-20T10:38:34.547Z,953.41
2018-02-20T10:39:34.560Z,953.42
2018-02-20T10:40:34.572Z,953.4
2018-02-20T10:41:34.590Z,953.39
2018-02-20T10:42:34.601Z,953.39
2018-02-20T10:43:34.614Z,953.39
2018-02-20T10:44:34.627Z,953.37
2018-02-20T10:45:34.640Z,953.34
2018-02-20T10:46:34.655Z,953.36
2018-02-20T10:47:34.666Z,953.36
2018-02-20T10:48:34.731Z,953.35
2018-02-20T10:49:34.694Z,953.32
2018-02-20T10:50:34.709Z,953.34
2018-02-20T10:51:34.720Z,953.33
2018-02-20T10:52:34.734Z,953.33
2018-02-20T10:53:34.749Z,953.35
2018-02-20T10:54:34.762Z,953.34
2018-02-20T10:55:34.774Z,953.36
2018-02-20T10:56:34.789Z,953.3
2018-02-20T10:57:34.803Z,953.3
2018-02-20T10:58:34.815Z,953.31
2018-02-20T10:59:34.835Z,953.31
2018-02-20T11:00:34.845Z,953.34
2018-02-20T11:01:34.858Z,953.31
2018-02-20T11:02:34.871Z,953.33
2018-02-20T11:03:34.943Z,953.33
2018-02-20T11:04:34.901Z,953.31
2018-02-20T11:05:34.915Z,953.26
2018-02-20T11:06:34.928Z,953.3
2018-02-20T11:07:34.942Z,953.25
2018-02-20T11:08:34.957Z,953.24
2018-02-20T11:09:34.974Z,953.24
2018-02-20T11:10:34.984Z,953.28
2018-02-20T11:11:34.997Z,953.24
2018-02-20T11:12:35.012Z,953.25
2018-02-20T11:13:35.127Z,953.23
2018-02-20T11:14:35.040Z,953.29
2018-02-20T11:15:35.056Z,953.23
2018-02-20T11:16:35.068Z,953.22
2018-02-20T11:17:35.088Z,953.21
2018-02-20T11:18:35.148Z,953.22
2018-02-20T11:19:35.111Z,953.21
2018-02-20T11:20:35.125Z,953.21
2018-02-20T11:21:35.138Z,953.19
2018-02-20T11:22:35.154Z,953.16
2018-02-20T11:23:35.168Z,953.18
2018-02-20T11:24:35.181Z,953.19
2018-02-20T11:25:35.197Z,953.2
2018-02-20T11:26:35.211Z,953.17
2018-02-20T11:27:35.223Z,953.2
2018-02-20T11:28:35.239Z,953.2
2018-02-20T11:29:35.252Z,953.22
2018-02-20T11:30:35.267Z,953.25
2018-02-20T11:31:35.280Z,953.23
2018-02-20T11:32:35.296Z,953.27
2018-02-20T11:33:35.361Z,953.24
2018-02-20T11:34:35.325Z,953.23
2018-02-20T11:35:35.338Z,953.25
2018-02-20T11:36:35.354Z,953.24
2018-02-20T11:37:35.368Z,953.23
2018-02-20T11:38:35.423Z,953.2
2018-02-20T11:39:35.396Z,953.21
2018-02-20T11:40:35.410Z,953.25
2018-02-20T11:41:35.426Z,953.19
2018-02-20T11:42:35.439Z,953.17
2018-02-20T11:43:35.455Z,953.2
2018-02-20T11:44:35.469Z,953.16
2018-02-20T11:45:35.483Z,953.18
2018-02-20T11:46:35.498Z,953.2
2018-02-20T11:47:35.520Z,953.2
2018-02-20T11:48:35.629Z,953.18
2018-02-20T11:49:35.542Z,953.17
2018-02-20T11:50:35.556Z,953.16
2018-02-20T11:51:35.577Z,953.16
2018-02-20T11:52:35.587Z,953.15
2018-02-20T11:53:35.601Z,953.14
2018-02-20T11:54:35.616Z,953.17
2018-02-20T11:55:35.632Z,953.16
2018-02-20T11:56:35.646Z,953.15
2018-02-20T11:57:35.660Z,953.16
2018-02-20T11:58:35.675Z,953.14
2018-02-20T11:59:35.691Z,953.18
2018-02-20T12:00:35.705Z,953.16
2018-02-20T12:01:35.722Z,953.18
2018-02-20T12:02:35.744Z,953.17
2018-02-20T12:03:35.802Z,953.13
2018-02-20T12:04:35.765Z,953.13
2018-02-20T12:05:35.782Z,953.19
2018-02-20T12:06:35.795Z,953.15
2018-02-20T12:07:35.812Z,953.13
2018-02-20T12:08:35.849Z,953.15
2018-02-20T12:09:35.841Z,953.14
2018-02-20T12:10:35.858Z,953.11
2018-02-20T12:11:35.872Z,953.1
2018-02-20T12:12:35.886Z,953.1
2018-02-20T12:13:35.902Z,953.11
2018-02-20T12:14:35.917Z,953.14
2018-02-20T12:15:35.931Z,953.1
2018-02-20T12:16:35.983Z,953.1
2018-02-20T12:17:35.964Z,953.09
2018-02-20T12:18:36.029Z,953.07
2018-02-20T12:19:35.992Z,953.11
2018-02-20T12:20:36.011Z,953.12
2018-02-20T12:21:36.024Z,953.11
2018-02-20T12:22:36.040Z,953.11
2018-02-20T12:23:36.054Z,953.1
2018-02-20T12:24:36.069Z,953.11
2018-02-20T12:25:36.086Z,953.12
2018-02-20T12:26:36.100Z,953.09
2018-02-20T12:27:36.114Z,953.08
2018-02-20T12:28:36.129Z,953.14
2018-02-20T12:29:36.145Z,953.13
2018-02-20T12:30:36.159Z,953.11
2018-02-20T12:31:36.175Z,953.13